sensor_id;sensor_type;location;lat;lon;timestamp;temperature;humidity
11615;DHT22;5863;52.832;4.758;2023-07-20T00:02:20;16.10;99.90
11615;DHT22;5863;52.832;4.758;2023-07-20T00:04:46;16.00;99.90
11615;DHT22;5863;52.832;4.758;2023-07-20T00:07:13;16.00;99.90
11615;DHT22;5863;52.832;4.758;2023-07-20T00:09:40;16.00;99.90
11615;DHT22;5863;52.832;4.758;2023-07-20T00:12:07;16.00;99.90
11615;DHT22;5863;52.832;4.758;2023-07-20T00:14:35;16.00;99.90
11615;DHT22;5863;52.832;4.758;2023-07-20T00:17:02;15.90;99.90
11615;DHT22;5863;52.832;4.758;2023-07-20T00:19:29;15.90;99.90
11615;DHT22;5863;52.832;4.758;2023-07-20T00:21:57;15.90;99.90
11615;DHT22;5863;52.832;4.758;2023-07-20T00:24:24;15.90;99.90
11615;DHT22;5863;52.832;4.758;2023-07-20T00:26:51;15.90;99.90
11615;DHT22;5863;52.832;4.758;2023-07-20T00:29:18;15.80;99.90
11615;DHT22;5863;52.832;4.758;2023-07-20T00:31:46;15.90;99.90
11615;DHT22;5863;52.832;4.758;2023-07-20T00:34:12;15.80;99.90
11615;DHT22;5863;52.832;4.758;2023-07-20T00:36:39;15.80;99.90
11615;DHT22;5863;52.832;4.758;2023-07-20T00:39:06;15.80;99.90
11615;DHT22;5863;52.832;4.758;2023-07-20T00:41:33;15.80;99.90
11615;DHT22;5863;52.832;4.758;2023-07-20T00:44:00;15.70;99.90
11615;DHT22;5863;52.832;4.758;2023-07-20T00:46:27;15.70;99.90
11615;DHT22;5863;52.832;4.758;2023-07-20T00:48:55;15.60;99.90
11615;DHT22;5863;52.832;4.758;2023-07-20T00:51:23;15.60;99.90
11615;DHT22;5863;52.832;4.758;2023-07-20T00:53:52;15.60;99.90
11615;DHT22;5863;52.832;4.758;2023-07-20T00:56:19;15.50;99.90
11615;DHT22;5863;52.832;4.758;2023-07-20T00:58:46;15.60;99.90
11615;DHT22;5863;52.832;4.758;2023-07-20T01:01:12;15.60;99.90
11615;DHT22;5863;52.832;4.758;2023-07-20T01:03:39;15.50;99.90
11615;DHT22;5863;52.832;4.758;2023-07-20T01:06:14;15.40;99.90
11615;DHT22;5863;52.832;4.758;2023-07-20T01:08:47;15.40;99.90
11615;DHT22;5863;52.832;4.758;2023-07-20T01:11:23;15.30;99.90
11615;DHT22;5863;52.832;4.758;2023-07-20T01:13:53;15.40;99.90
11615;DHT22;5863;52.832;4.758;2023-07-20T01:16:19;15.30;99.90
11615;DHT22;5863;52.832;4.758;2023-07-20T01:18:46;15.10;99.90
11615;DHT22;5863;52.832;4.758;2023-07-20T01:21:22;15.30;99.90
11615;DHT22;5863;52.832;4.758;2023-07-20T01:24:13;15.20;99.90
11615;DHT22;5863;52.832;4.758;2023-07-20T01:27:00;15.20;99.90
11615;DHT22;5863;52.832;4.758;2023-07-20T01:29:42;15.20;99.90
11615;DHT22;5863;52.832;4.758;2023-07-20T01:32:11;15.10;99.90
11615;DHT22;5863;52.832;4.758;2023-07-20T01:34:39;15.20;99.90
11615;DHT22;5863;52.832;4.758;2023-07-20T01:37:08;15.20;99.90
11615;DHT22;5863;52.832;4.758;2023-07-20T01:39:36;15.10;99.90
11615;DHT22;5863;52.832;4.758;2023-07-20T01:42:04;15.10;99.90
11615;DHT22;5863;52.832;4.758;2023-07-20T01:44:31;15.10;99.90
11615;DHT22;5863;52.832;4.758;2023-07-20T01:46:58;15.10;99.90
11615;DHT22;5863;52.832;4.758;2023-07-20T01:49:26;15.10;99.90
11615;DHT22;5863;52.832;4.758;2023-07-20T01:51:53;15.10;99.90
11615;DHT22;5863;52.832;4.758;2023-07-20T01:54:19;15.00;99.90
11615;DHT22;5863;52.832;4.758;2023-07-20T01:56:46;15.00;99.90
11615;DHT22;5863;52.832;4.758;2023-07-20T01:59:13;15.00;99.90
11615;DHT22;5863;52.832;4.758;2023-07-20T02:01:40;15.00;99.90
11615;DHT22;5863;52.832;4.758;2023-07-20T02:04:07;14.90;99.90
11615;DHT22;5863;52.832;4.758;2023-07-20T02:06:35;14.90;99.90
11615;DHT22;5863;52.832;4.758;2023-07-20T02:09:02;14.90;99.90
11615;DHT22;5863;52.832;4.758;2023-07-20T02:11:28;14.90;99.90
11615;DHT22;5863;52.832;4.758;2023-07-20T02:13:55;14.80;99.90
11615;DHT22;5863;52.832;4.758;2023-07-20T02:16:22;14.80;99.90
11615;DHT22;5863;52.832;4.758;2023-07-20T02:18:49;14.80;99.90
11615;DHT22;5863;52.832;4.758;2023-07-20T02:21:17;14.70;99.90
11615;DHT22;5863;52.832;4.758;2023-07-20T02:23:45;14.70;99.90
11615;DHT22;5863;52.832;4.758;2023-07-20T02:26:12;14.70;99.90
11615;DHT22;5863;52.832;4.758;2023-07-20T02:28:38;14.60;99.90
11615;DHT22;5863;52.832;4.758;2023-07-20T02:31:06;14.60;99.90
11615;DHT22;5863;52.832;4.758;2023-07-20T02:33:33;14.60;99.90
11615;DHT22;5863;52.832;4.758;2023-07-20T02:36:03;14.60;99.90
11615;DHT22;5863;52.832;4.758;2023-07-20T02:38:29;14.60;99.90
11615;DHT22;5863;52.832;4.758;2023-07-20T02:40:57;14.50;99.90
11615;DHT22;5863;52.832;4.758;2023-07-20T02:43:24;14.50;99.90
11615;DHT22;5863;52.832;4.758;2023-07-20T02:45:51;14.50;99.90
11615;DHT22;5863;52.832;4.758;2023-07-20T02:48:17;14.50;99.90
11615;DHT22;5863;52.832;4.758;2023-07-20T02:50:44;14.50;99.90
11615;DHT22;5863;52.832;4.758;2023-07-20T02:53:11;14.40;99.90
11615;DHT22;5863;52.832;4.758;2023-07-20T02:55:37;14.40;99.90
11615;DHT22;5863;52.832;4.758;2023-07-20T02:58:06;14.40;99.90
11615;DHT22;5863;52.832;4.758;2023-07-20T03:00:33;14.30;99.90
11615;DHT22;5863;52.832;4.758;2023-07-20T03:02:59;14.30;99.90
11615;DHT22;5863;52.832;4.758;2023-07-20T03:05:26;14.30;99.90
11615;DHT22;5863;52.832;4.758;2023-07-20T03:07:53;14.30;99.90
11615;DHT22;5863;52.832;4.758;2023-07-20T03:10:20;14.30;99.90
11615;DHT22;5863;52.832;4.758;2023-07-20T03:12:46;14.30;99.90
11615;DHT22;5863;52.832;4.758;2023-07-20T03:15:14;14.30;99.90
11615;DHT22;5863;52.832;4.758;2023-07-20T03:17:41;14.30;99.90
11615;DHT22;5863;52.832;4.758;2023-07-20T03:20:09;14.30;99.90
11615;DHT22;5863;52.832;4.758;2023-07-20T03:22:38;14.20;99.90
11615;DHT22;5863;52.832;4.758;2023-07-20T03:25:05;14.20;99.90
11615;DHT22;5863;52.832;4.758;2023-07-20T03:27:32;14.10;99.90
11615;DHT22;5863;52.832;4.758;2023-07-20T03:29:59;14.20;99.90
11615;DHT22;5863;52.832;4.758;2023-07-20T03:32:27;14.20;99.90
11615;DHT22;5863;52.832;4.758;2023-07-20T03:34:54;14.10;99.90
11615;DHT22;5863;52.832;4.758;2023-07-20T03:37:20;14.10;99.90
11615;DHT22;5863;52.832;4.758;2023-07-20T03:39:47;14.10;99.90
11615;DHT22;5863;52.832;4.758;2023-07-20T03:42:14;14.10;99.90
11615;DHT22;5863;52.832;4.758;2023-07-20T03:44:41;14.10;99.90
11615;DHT22;5863;52.832;4.758;2023-07-20T03:47:07;14.10;99.90
11615;DHT22;5863;52.832;4.758;2023-07-20T03:49:36;14.10;99.90
11615;DHT22;5863;52.832;4.758;2023-07-20T03:52:03;14.10;99.90
11615;DHT22;5863;52.832;4.758;2023-07-20T03:54:30;14.10;99.90
11615;DHT22;5863;52.832;4.758;2023-07-20T03:56:57;14.10;99.90
11615;DHT22;5863;52.832;4.758;2023-07-20T03:59:24;14.10;99.90
11615;DHT22;5863;52.832;4.758;2023-07-20T04:01:51;14.10;99.90
11615;DHT22;5863;52.832;4.758;2023-07-20T04:04:19;14.10;99.90
11615;DHT22;5863;52.832;4.758;2023-07-20T04:06:47;14.10;99.90
11615;DHT22;5863;52.832;4.758;2023-07-20T04:09:14;14.10;99.90
11615;DHT22;5863;52.832;4.758;2023-07-20T04:11:40;14.10;99.90
11615;DHT22;5863;52.832;4.758;2023-07-20T04:14:07;14.10;99.90
11615;DHT22;5863;52.832;4.758;2023-07-20T04:16:34;14.10;99.90
11615;DHT22;5863;52.832;4.758;2023-07-20T04:19:00;14.10;99.90
11615;DHT22;5863;52.832;4.758;2023-07-20T04:21:28;14.10;99.90
11615;DHT22;5863;52.832;4.758;2023-07-20T04:23:56;14.20;99.90
11615;DHT22;5863;52.832;4.758;2023-07-20T04:26:23;14.20;99.90
11615;DHT22;5863;52.832;4.758;2023-07-20T04:28:50;14.30;99.90
11615;DHT22;5863;52.832;4.758;2023-07-20T04:31:19;14.30;99.90
11615;DHT22;5863;52.832;4.758;2023-07-20T04:33:46;14.50;99.90
11615;DHT22;5863;52.832;4.758;2023-07-20T04:36:12;14.70;99.90
11615;DHT22;5863;52.832;4.758;2023-07-20T04:38:42;14.70;99.90
11615;DHT22;5863;52.832;4.758;2023-07-20T04:41:12;14.90;99.90
11615;DHT22;5863;52.832;4.758;2023-07-20T04:43:41;15.10;99.90
11615;DHT22;5863;52.832;4.758;2023-07-20T04:46:08;15.20;99.90
11615;DHT22;5863;52.832;4.758;2023-07-20T04:48:35;15.30;99.90
11615;DHT22;5863;52.832;4.758;2023-07-20T04:51:02;15.40;99.90
11615;DHT22;5863;52.832;4.758;2023-07-20T04:53:28;15.60;99.90
11615;DHT22;5863;52.832;4.758;2023-07-20T04:55:56;15.70;99.90
11615;DHT22;5863;52.832;4.758;2023-07-20T04:58:24;15.90;99.90
11615;DHT22;5863;52.832;4.758;2023-07-20T05:00:51;16.20;99.90
11615;DHT22;5863;52.832;4.758;2023-07-20T05:03:18;16.60;99.90
11615;DHT22;5863;52.832;4.758;2023-07-20T05:05:46;17.00;99.90
11615;DHT22;5863;52.832;4.758;2023-07-20T05:08:13;17.40;99.90
11615;DHT22;5863;52.832;4.758;2023-07-20T05:10:40;17.90;99.90
11615;DHT22;5863;52.832;4.758;2023-07-20T05:13:07;18.50;99.90
11615;DHT22;5863;52.832;4.758;2023-07-20T05:15:35;19.10;99.90
11615;DHT22;5863;52.832;4.758;2023-07-20T05:18:01;19.50;99.90
11615;DHT22;5863;52.832;4.758;2023-07-20T05:20:29;20.10;99.90
11615;DHT22;5863;52.832;4.758;2023-07-20T05:22:57;20.60;99.90
11615;DHT22;5863;52.832;4.758;2023-07-20T05:25:24;21.10;99.90
11615;DHT22;5863;52.832;4.758;2023-07-20T05:27:51;21.60;99.90
11615;DHT22;5863;52.832;4.758;2023-07-20T05:30:20;22.00;99.90
11615;DHT22;5863;52.832;4.758;2023-07-20T05:32:51;22.50;99.90
11615;DHT22;5863;52.832;4.758;2023-07-20T05:35:19;22.80;99.90
11615;DHT22;5863;52.832;4.758;2023-07-20T05:37:46;22.80;99.90
11615;DHT22;5863;52.832;4.758;2023-07-20T05:40:14;22.40;99.90
11615;DHT22;5863;52.832;4.758;2023-07-20T05:42:44;21.80;99.90
11615;DHT22;5863;52.832;4.758;2023-07-20T05:45:11;21.70;99.90
11615;DHT22;5863;52.832;4.758;2023-07-20T05:47:37;22.40;99.90
11615;DHT22;5863;52.832;4.758;2023-07-20T05:50:06;23.10;99.90
11615;DHT22;5863;52.832;4.758;2023-07-20T05:52:34;23.70;99.90
11615;DHT22;5863;52.832;4.758;2023-07-20T05:55:01;24.40;99.90
11615;DHT22;5863;52.832;4.758;2023-07-20T05:57:28;24.90;99.90
11615;DHT22;5863;52.832;4.758;2023-07-20T05:59:55;25.40;99.90
11615;DHT22;5863;52.832;4.758;2023-07-20T06:02:22;25.20;99.90
11615;DHT22;5863;52.832;4.758;2023-07-20T06:04:49;24.30;99.90
11615;DHT22;5863;52.832;4.758;2023-07-20T06:07:17;23.40;99.90
11615;DHT22;5863;52.832;4.758;2023-07-20T06:09:44;22.50;99.90
11615;DHT22;5863;52.832;4.758;2023-07-20T06:12:11;21.80;99.90
11615;DHT22;5863;52.832;4.758;2023-07-20T06:14:38;21.80;99.90
11615;DHT22;5863;52.832;4.758;2023-07-20T06:17:08;22.10;99.90
11615;DHT22;5863;52.832;4.758;2023-07-20T06:19:35;22.10;99.90
11615;DHT22;5863;52.832;4.758;2023-07-20T06:22:02;22.10;99.90
11615;DHT22;5863;52.832;4.758;2023-07-20T06:24:31;22.60;99.90
11615;DHT22;5863;52.832;4.758;2023-07-20T06:26:57;23.50;99.90
11615;DHT22;5863;52.832;4.758;2023-07-20T06:29:24;24.30;99.90
11615;DHT22;5863;52.832;4.758;2023-07-20T06:31:51;25.00;99.90
11615;DHT22;5863;52.832;4.758;2023-07-20T06:34:17;25.70;99.90
11615;DHT22;5863;52.832;4.758;2023-07-20T06:36:46;26.20;99.90
11615;DHT22;5863;52.832;4.758;2023-07-20T06:39:12;26.70;98.90
11615;DHT22;5863;52.832;4.758;2023-07-20T06:41:41;27.10;97.40
11615;DHT22;5863;52.832;4.758;2023-07-20T06:44:07;27.40;96.90
11615;DHT22;5863;52.832;4.758;2023-07-20T06:46:34;26.90;96.90
11615;DHT22;5863;52.832;4.758;2023-07-20T06:49:03;25.70;97.60
11615;DHT22;5863;52.832;4.758;2023-07-20T06:51:29;24.50;98.70
11615;DHT22;5863;52.832;4.758;2023-07-20T06:53:56;23.70;99.90
11615;DHT22;5863;52.832;4.758;2023-07-20T06:56:23;23.10;99.90
11615;DHT22;5863;52.832;4.758;2023-07-20T06:58:51;22.60;99.90
11615;DHT22;5863;52.832;4.758;2023-07-20T07:01:17;22.00;99.90
11615;DHT22;5863;52.832;4.758;2023-07-20T07:03:46;21.80;99.90
11615;DHT22;5863;52.832;4.758;2023-07-20T07:06:13;22.10;99.90
11615;DHT22;5863;52.832;4.758;2023-07-20T07:08:39;22.60;99.90
11615;DHT22;5863;52.832;4.758;2023-07-20T07:11:06;22.80;99.90
11615;DHT22;5863;52.832;4.758;2023-07-20T07:13:33;23.50;99.90
11615;DHT22;5863;52.832;4.758;2023-07-20T07:16:08;24.60;99.90
11615;DHT22;5863;52.832;4.758;2023-07-20T07:18:34;25.40;99.90
11615;DHT22;5863;52.832;4.758;2023-07-20T07:21:04;26.20;98.50
11615;DHT22;5863;52.832;4.758;2023-07-20T07:23:32;26.90;97.50
11615;DHT22;5863;52.832;4.758;2023-07-20T07:25:58;27.40;95.50
11615;DHT22;5863;52.832;4.758;2023-07-20T07:28:25;27.00;96.10
11615;DHT22;5863;52.832;4.758;2023-07-20T07:30:52;26.90;96.20
11615;DHT22;5863;52.832;4.758;2023-07-20T07:33:20;26.90;95.40
11615;DHT22;5863;52.832;4.758;2023-07-20T07:35:46;27.20;95.10
11615;DHT22;5863;52.832;4.758;2023-07-20T07:38:14;26.90;95.40
11615;DHT22;5863;52.832;4.758;2023-07-20T07:40:41;27.10;96.00
11615;DHT22;5863;52.832;4.758;2023-07-20T07:43:08;27.60;95.70
11615;DHT22;5863;52.832;4.758;2023-07-20T07:45:35;28.10;95.00
11615;DHT22;5863;52.832;4.758;2023-07-20T07:48:03;28.20;94.20
11615;DHT22;5863;52.832;4.758;2023-07-20T07:50:31;28.40;94.00
11615;DHT22;5863;52.832;4.758;2023-07-20T07:52:58;28.80;93.70
11615;DHT22;5863;52.832;4.758;2023-07-20T07:55:25;29.00;93.60
11615;DHT22;5863;52.832;4.758;2023-07-20T07:57:53;28.50;92.20
11615;DHT22;5863;52.832;4.758;2023-07-20T08:00:20;27.40;93.60
11615;DHT22;5863;52.832;4.758;2023-07-20T08:02:47;26.20;95.40
11615;DHT22;5863;52.832;4.758;2023-07-20T08:05:14;25.60;96.10
11615;DHT22;5863;52.832;4.758;2023-07-20T08:07:42;25.80;96.40
11615;DHT22;5863;52.832;4.758;2023-07-20T08:10:09;26.10;95.40
11615;DHT22;5863;52.832;4.758;2023-07-20T08:12:36;26.40;95.20
11615;DHT22;5863;52.832;4.758;2023-07-20T08:15:03;25.90;95.80
11615;DHT22;5863;52.832;4.758;2023-07-20T08:17:30;25.20;96.40
11615;DHT22;5863;52.832;4.758;2023-07-20T08:19:57;24.50;97.10
11615;DHT22;5863;52.832;4.758;2023-07-20T08:22:24;23.90;97.60
11615;DHT22;5863;52.832;4.758;2023-07-20T08:24:52;23.30;98.10
11615;DHT22;5863;52.832;4.758;2023-07-20T08:27:18;22.60;99.30
11615;DHT22;5863;52.832;4.758;2023-07-20T08:29:45;22.20;98.60
11615;DHT22;5863;52.832;4.758;2023-07-20T08:32:12;21.70;98.20
11615;DHT22;5863;52.832;4.758;2023-07-20T08:34:42;21.30;98.80
11615;DHT22;5863;52.832;4.758;2023-07-20T08:37:10;21.00;99.70
11615;DHT22;5863;52.832;4.758;2023-07-20T08:39:36;20.60;99.90
11615;DHT22;5863;52.832;4.758;2023-07-20T08:42:06;20.50;99.90
11615;DHT22;5863;52.832;4.758;2023-07-20T08:44:33;20.40;99.90
11615;DHT22;5863;52.832;4.758;2023-07-20T08:47:01;20.40;99.90
11615;DHT22;5863;52.832;4.758;2023-07-20T08:49:29;20.70;99.90
11615;DHT22;5863;52.832;4.758;2023-07-20T08:51:57;21.20;99.90
11615;DHT22;5863;52.832;4.758;2023-07-20T08:54:25;21.50;99.90
11615;DHT22;5863;52.832;4.758;2023-07-20T08:56:56;21.40;99.90
11615;DHT22;5863;52.832;4.758;2023-07-20T08:59:25;21.10;99.90
11615;DHT22;5863;52.832;4.758;2023-07-20T09:01:54;20.80;99.90
11615;DHT22;5863;52.832;4.758;2023-07-20T09:04:21;20.60;99.90
11615;DHT22;5863;52.832;4.758;2023-07-20T09:06:49;20.30;99.90
11615;DHT22;5863;52.832;4.758;2023-07-20T09:09:16;20.10;99.90
11615;DHT22;5863;52.832;4.758;2023-07-20T09:11:44;20.00;99.90
11615;DHT22;5863;52.832;4.758;2023-07-20T09:14:11;19.80;99.90
11615;DHT22;5863;52.832;4.758;2023-07-20T09:16:50;19.80;99.90
11615;DHT22;5863;52.832;4.758;2023-07-20T09:19:17;19.80;99.90
11615;DHT22;5863;52.832;4.758;2023-07-20T09:21:45;19.80;99.90
11615;DHT22;5863;52.832;4.758;2023-07-20T09:24:13;20.10;99.90
11615;DHT22;5863;52.832;4.758;2023-07-20T09:26:41;20.40;99.90
11615;DHT22;5863;52.832;4.758;2023-07-20T09:29:08;20.60;99.90
11615;DHT22;5863;52.832;4.758;2023-07-20T09:31:35;20.80;99.90
11615;DHT22;5863;52.832;4.758;2023-07-20T09:34:04;20.80;99.90
11615;DHT22;5863;52.832;4.758;2023-07-20T09:36:33;20.80;99.90
11615;DHT22;5863;52.832;4.758;2023-07-20T09:39:00;20.70;99.90
11615;DHT22;5863;52.832;4.758;2023-07-20T09:41:27;20.70;99.90
11615;DHT22;5863;52.832;4.758;2023-07-20T09:43:54;20.80;99.90
11615;DHT22;5863;52.832;4.758;2023-07-20T09:46:21;20.80;99.90
11615;DHT22;5863;52.832;4.758;2023-07-20T09:48:52;20.80;99.90
11615;DHT22;5863;52.832;4.758;2023-07-20T09:51:21;21.00;99.90
11615;DHT22;5863;52.832;4.758;2023-07-20T09:53:48;21.20;99.90
11615;DHT22;5863;52.832;4.758;2023-07-20T09:56:16;21.20;99.90
11615;DHT22;5863;52.832;4.758;2023-07-20T09:58:46;21.20;99.90
11615;DHT22;5863;52.832;4.758;2023-07-20T10:01:13;21.20;99.90
11615;DHT22;5863;52.832;4.758;2023-07-20T10:03:45;21.40;99.90
11615;DHT22;5863;52.832;4.758;2023-07-20T10:06:15;21.40;99.90
11615;DHT22;5863;52.832;4.758;2023-07-20T10:08:47;21.30;99.90
11615;DHT22;5863;52.832;4.758;2023-07-20T10:11:16;21.40;99.90
11615;DHT22;5863;52.832;4.758;2023-07-20T10:13:44;21.50;99.90
11615;DHT22;5863;52.832;4.758;2023-07-20T10:16:21;21.60;99.90
11615;DHT22;5863;52.832;4.758;2023-07-20T10:18:51;21.60;99.90
11615;DHT22;5863;52.832;4.758;2023-07-20T10:21:22;21.70;99.90
11615;DHT22;5863;52.832;4.758;2023-07-20T10:23:50;21.80;99.90
11615;DHT22;5863;52.832;4.758;2023-07-20T10:26:17;21.60;99.90
11615;DHT22;5863;52.832;4.758;2023-07-20T10:28:45;21.50;99.90
11615;DHT22;5863;52.832;4.758;2023-07-20T10:31:24;21.40;99.90
11615;DHT22;5863;52.832;4.758;2023-07-20T10:33:54;21.40;99.90
11615;DHT22;5863;52.832;4.758;2023-07-20T10:36:44;21.50;99.90
11615;DHT22;5863;52.832;4.758;2023-07-20T10:39:22;21.50;99.90
11615;DHT22;5863;52.832;4.758;2023-07-20T10:42:00;21.60;99.90
11615;DHT22;5863;52.832;4.758;2023-07-20T10:44:27;21.50;99.90
11615;DHT22;5863;52.832;4.758;2023-07-20T10:46:59;21.50;99.90
11615;DHT22;5863;52.832;4.758;2023-07-20T10:49:28;21.60;99.90
11615;DHT22;5863;52.832;4.758;2023-07-20T10:51:59;21.70;99.90
11615;DHT22;5863;52.832;4.758;2023-07-20T10:54:48;21.60;99.90
11615;DHT22;5863;52.832;4.758;2023-07-20T10:57:23;21.60;99.90
11615;DHT22;5863;52.832;4.758;2023-07-20T11:00:07;21.60;99.90
11615;DHT22;5863;52.832;4.758;2023-07-20T11:02:45;21.60;99.90
11615;DHT22;5863;52.832;4.758;2023-07-20T11:05:37;21.60;99.90
11615;DHT22;5863;52.832;4.758;2023-07-20T11:08:05;21.60;99.90
11615;DHT22;5863;52.832;4.758;2023-07-20T11:10:34;21.70;99.90
11615;DHT22;5863;52.832;4.758;2023-07-20T11:13:17;21.80;99.90
11615;DHT22;5863;52.832;4.758;2023-07-20T11:15:47;21.90;99.90
11615;DHT22;5863;52.832;4.758;2023-07-20T11:18:14;22.00;99.90
11615;DHT22;5863;52.832;4.758;2023-07-20T11:20:41;22.00;99.90
11615;DHT22;5863;52.832;4.758;2023-07-20T11:23:09;22.20;99.90
11615;DHT22;5863;52.832;4.758;2023-07-20T11:25:38;22.20;99.90
11615;DHT22;5863;52.832;4.758;2023-07-20T11:28:09;22.20;99.90
11615;DHT22;5863;52.832;4.758;2023-07-20T11:30:37;22.10;99.90
11615;DHT22;5863;52.832;4.758;2023-07-20T11:33:04;22.00;99.90
11615;DHT22;5863;52.832;4.758;2023-07-20T11:35:34;22.00;99.90
11615;DHT22;5863;52.832;4.758;2023-07-20T11:38:02;21.90;99.90
11615;DHT22;5863;52.832;4.758;2023-07-20T11:40:32;21.70;99.90
11615;DHT22;5863;52.832;4.758;2023-07-20T11:43:01;21.70;99.90
11615;DHT22;5863;52.832;4.758;2023-07-20T11:45:28;21.70;99.90
11615;DHT22;5863;52.832;4.758;2023-07-20T11:47:58;21.70;99.90
11615;DHT22;5863;52.832;4.758;2023-07-20T11:50:25;21.80;99.90
11615;DHT22;5863;52.832;4.758;2023-07-20T11:52:52;21.90;99.90
11615;DHT22;5863;52.832;4.758;2023-07-20T11:55:19;22.00;99.90
11615;DHT22;5863;52.832;4.758;2023-07-20T12:00:44;22.10;99.90
11615;DHT22;5863;52.832;4.758;2023-07-20T12:03:12;22.10;99.90
11615;DHT22;5863;52.832;4.758;2023-07-20T12:05:39;21.90;99.90
11615;DHT22;5863;52.832;4.758;2023-07-20T12:08:05;21.80;99.90
11615;DHT22;5863;52.832;4.758;2023-07-20T12:10:32;21.70;99.90
11615;DHT22;5863;52.832;4.758;2023-07-20T12:13:02;21.60;99.90
11615;DHT22;5863;52.832;4.758;2023-07-20T12:15:29;21.60;99.90
11615;DHT22;5863;52.832;4.758;2023-07-20T12:17:59;21.60;99.90
11615;DHT22;5863;52.832;4.758;2023-07-20T12:20:28;21.70;99.90
11615;DHT22;5863;52.832;4.758;2023-07-20T12:23:00;21.70;99.90
11615;DHT22;5863;52.832;4.758;2023-07-20T12:25:54;21.70;99.90
11615;DHT22;5863;52.832;4.758;2023-07-20T12:28:23;21.60;99.90
11615;DHT22;5863;52.832;4.758;2023-07-20T12:30:51;21.50;99.90
11615;DHT22;5863;52.832;4.758;2023-07-20T12:33:23;21.40;99.90
11615;DHT22;5863;52.832;4.758;2023-07-20T12:35:50;21.40;99.90
11615;DHT22;5863;52.832;4.758;2023-07-20T12:38:21;21.50;99.90
11615;DHT22;5863;52.832;4.758;2023-07-20T12:40:48;21.60;99.90
11615;DHT22;5863;52.832;4.758;2023-07-20T12:43:15;21.60;99.90
11615;DHT22;5863;52.832;4.758;2023-07-20T12:45:42;21.60;99.90
11615;DHT22;5863;52.832;4.758;2023-07-20T12:48:09;21.60;99.90
11615;DHT22;5863;52.832;4.758;2023-07-20T12:50:37;21.70;99.90
11615;DHT22;5863;52.832;4.758;2023-07-20T12:53:04;21.60;99.90
11615;DHT22;5863;52.832;4.758;2023-07-20T12:55:31;21.40;99.90
11615;DHT22;5863;52.832;4.758;2023-07-20T12:57:58;21.30;99.90
11615;DHT22;5863;52.832;4.758;2023-07-20T13:00:24;21.20;99.90
11615;DHT22;5863;52.832;4.758;2023-07-20T13:02:52;21.10;99.90
11615;DHT22;5863;52.832;4.758;2023-07-20T13:05:18;21.10;99.90
11615;DHT22;5863;52.832;4.758;2023-07-20T13:07:46;21.10;99.90
11615;DHT22;5863;52.832;4.758;2023-07-20T13:10:13;21.10;99.90
11615;DHT22;5863;52.832;4.758;2023-07-20T13:12:40;21.00;99.90
11615;DHT22;5863;52.832;4.758;2023-07-20T13:15:08;20.90;99.90
11615;DHT22;5863;52.832;4.758;2023-07-20T13:17:37;20.90;99.90
11615;DHT22;5863;52.832;4.758;2023-07-20T13:20:05;20.80;99.90
11615;DHT22;5863;52.832;4.758;2023-07-20T13:22:33;20.80;99.90
11615;DHT22;5863;52.832;4.758;2023-07-20T13:25:02;20.80;99.90
11615;DHT22;5863;52.832;4.758;2023-07-20T13:27:29;20.80;99.90
11615;DHT22;5863;52.832;4.758;2023-07-20T13:29:57;20.80;99.90
11615;DHT22;5863;52.832;4.758;2023-07-20T13:32:24;20.80;99.90
11615;DHT22;5863;52.832;4.758;2023-07-20T13:34:50;20.80;99.90
11615;DHT22;5863;52.832;4.758;2023-07-20T13:37:17;20.80;99.90
11615;DHT22;5863;52.832;4.758;2023-07-20T13:39:44;20.80;99.90
11615;DHT22;5863;52.832;4.758;2023-07-20T13:42:12;20.80;99.90
11615;DHT22;5863;52.832;4.758;2023-07-20T13:44:39;20.80;99.90
11615;DHT22;5863;52.832;4.758;2023-07-20T13:47:06;20.80;99.90
11615;DHT22;5863;52.832;4.758;2023-07-20T13:49:32;20.80;99.90
11615;DHT22;5863;52.832;4.758;2023-07-20T13:51:59;20.70;99.90
11615;DHT22;5863;52.832;4.758;2023-07-20T13:54:26;20.70;99.90
11615;DHT22;5863;52.832;4.758;2023-07-20T13:56:53;20.70;99.90
11615;DHT22;5863;52.832;4.758;2023-07-20T13:59:21;20.70;99.90
11615;DHT22;5863;52.832;4.758;2023-07-20T14:01:47;20.70;99.90
11615;DHT22;5863;52.832;4.758;2023-07-20T14:04:14;20.70;99.90
11615;DHT22;5863;52.832;4.758;2023-07-20T14:06:42;20.50;99.90
11615;DHT22;5863;52.832;4.758;2023-07-20T14:09:08;20.50;99.90
11615;DHT22;5863;52.832;4.758;2023-07-20T14:11:35;20.50;99.90
11615;DHT22;5863;52.832;4.758;2023-07-20T14:14:02;20.50;99.90
11615;DHT22;5863;52.832;4.758;2023-07-20T14:16:30;20.40;99.90
11615;DHT22;5863;52.832;4.758;2023-07-20T14:18:58;20.30;99.90
11615;DHT22;5863;52.832;4.758;2023-07-20T14:21:25;20.40;99.90
11615;DHT22;5863;52.832;4.758;2023-07-20T14:23:52;20.30;99.90
11615;DHT22;5863;52.832;4.758;2023-07-20T14:26:19;20.30;99.90
11615;DHT22;5863;52.832;4.758;2023-07-20T14:28:46;20.40;99.90
11615;DHT22;5863;52.832;4.758;2023-07-20T14:31:12;20.40;99.90
11615;DHT22;5863;52.832;4.758;2023-07-20T14:33:40;20.40;99.90
11615;DHT22;5863;52.832;4.758;2023-07-20T14:36:07;20.30;99.90
11615;DHT22;5863;52.832;4.758;2023-07-20T14:38:34;20.30;99.90
11615;DHT22;5863;52.832;4.758;2023-07-20T14:41:01;20.40;99.90
11615;DHT22;5863;52.832;4.758;2023-07-20T14:43:28;20.30;99.90
11615;DHT22;5863;52.832;4.758;2023-07-20T14:45:55;20.30;99.90
11615;DHT22;5863;52.832;4.758;2023-07-20T14:48:21;20.30;99.90
11615;DHT22;5863;52.832;4.758;2023-07-20T14:50:49;20.30;99.90
11615;DHT22;5863;52.832;4.758;2023-07-20T14:53:16;20.20;99.90
11615;DHT22;5863;52.832;4.758;2023-07-20T14:55:43;20.10;99.90
11615;DHT22;5863;52.832;4.758;2023-07-20T14:58:10;20.30;99.90
11615;DHT22;5863;52.832;4.758;2023-07-20T15:00:37;20.30;99.90
11615;DHT22;5863;52.832;4.758;2023-07-20T15:03:04;20.30;99.90
11615;DHT22;5863;52.832;4.758;2023-07-20T15:05:31;20.20;99.90
11615;DHT22;5863;52.832;4.758;2023-07-20T15:07:59;20.20;99.90
11615;DHT22;5863;52.832;4.758;2023-07-20T15:10:26;20.20;99.90
11615;DHT22;5863;52.832;4.758;2023-07-20T15:12:53;20.20;99.90
11615;DHT22;5863;52.832;4.758;2023-07-20T15:15:19;20.20;99.90
11615;DHT22;5863;52.832;4.758;2023-07-20T15:17:46;20.20;99.90
11615;DHT22;5863;52.832;4.758;2023-07-20T15:20:16;20.10;99.90
11615;DHT22;5863;52.832;4.758;2023-07-20T15:22:43;20.10;99.90
11615;DHT22;5863;52.832;4.758;2023-07-20T15:25:10;20.10;99.90
11615;DHT22;5863;52.832;4.758;2023-07-20T15:27:39;20.00;99.90
11615;DHT22;5863;52.832;4.758;2023-07-20T15:30:07;20.00;99.90
11615;DHT22;5863;52.832;4.758;2023-07-20T15:32:34;20.00;99.90
11615;DHT22;5863;52.832;4.758;2023-07-20T15:35:02;20.00;99.90
11615;DHT22;5863;52.832;4.758;2023-07-20T15:37:29;20.00;99.90
11615;DHT22;5863;52.832;4.758;2023-07-20T15:39:56;20.00;99.90
11615;DHT22;5863;52.832;4.758;2023-07-20T15:42:25;20.00;99.90
11615;DHT22;5863;52.832;4.758;2023-07-20T15:44:53;20.00;99.90
11615;DHT22;5863;52.832;4.758;2023-07-20T15:47:20;19.90;99.90
11615;DHT22;5863;52.832;4.758;2023-07-20T15:49:47;19.90;99.90
11615;DHT22;5863;52.832;4.758;2023-07-20T15:52:13;19.90;99.90
11615;DHT22;5863;52.832;4.758;2023-07-20T15:54:40;19.90;99.90